createdAt,value
2022-10-20T00:01:24.817Z,9.79
2022-10-20T00:03:54.983Z,9.76
2022-10-20T00:06:25.393Z,9.72
2022-10-20T00:08:53.795Z,9.72
2022-10-20T00:11:22.411Z,9.74
2022-10-20T00:13:51.467Z,9.71
2022-10-20T00:16:19.074Z,9.70
2022-10-20T00:18:46.382Z,9.67
2022-10-20T00:21:18.702Z,9.71
2022-10-20T00:23:46.114Z,9.75
2022-10-20T00:26:16.271Z,9.74
2022-10-20T00:28:45.366Z,9.74
2022-10-20T00:31:13.237Z,9.77
2022-10-20T00:33:40.960Z,9.78
2022-10-20T00:36:16.844Z,9.80
2022-10-20T00:38:45.227Z,9.80
2022-10-20T00:41:14.640Z,9.81
2022-10-20T00:43:55.708Z,9.86
2022-10-20T00:46:25.715Z,9.89
2022-10-20T00:48:56.523Z,9.89
2022-10-20T00:51:30.349Z,9.93
2022-10-20T00:54:12.072Z,9.96
2022-10-20T00:56:42.660Z,10.03
2022-10-20T00:59:12.153Z,10.05
2022-10-20T01:01:40.248Z,10.06
2022-10-20T01:04:07.820Z,10.06
2022-10-20T01:06:35.456Z,10.07
2022-10-20T01:09:05.902Z,10.10
2022-10-20T01:12:08.207Z,10.12
2022-10-20T01:14:44.102Z,10.14
2022-10-20T01:17:41.370Z,10.14
2022-10-20T01:20:46.379Z,10.14
2022-10-20T01:23:32.562Z,10.15
2022-10-20T01:26:27.652Z,10.13
2022-10-20T01:29:00.931Z,10.13
2022-10-20T01:31:45.007Z,10.11
2022-10-20T01:34:27.808Z,10.10
2022-10-20T01:36:59.933Z,10.11
2022-10-20T01:39:47.389Z,10.10
2022-10-20T01:42:19.781Z,10.07
2022-10-20T01:44:48.372Z,10.07
2022-10-20T01:47:16.730Z,10.10
2022-10-20T01:49:46.407Z,10.09
2022-10-20T01:52:14.304Z,10.10
2022-10-20T01:54:41.627Z,10.10
2022-10-20T01:57:11.342Z,10.10
2022-10-20T02:00:03.832Z,10.10
2022-10-20T02:02:42.049Z,10.11
2022-10-20T02:05:11.802Z,10.13
2022-10-20T02:07:39.916Z,10.13
2022-10-20T02:10:20.374Z,10.14
2022-10-20T02:12:51.383Z,10.14
2022-10-20T02:15:23.680Z,10.15
2022-10-20T02:17:59.360Z,10.14
2022-10-20T02:20:29.702Z,10.13
2022-10-20T02:23:00.984Z,10.11
2022-10-20T02:25:29.928Z,10.09
2022-10-20T02:30:31.477Z,10.10
2022-10-20T02:32:59.143Z,10.08
2022-10-20T02:35:30.291Z,10.08
2022-10-20T02:37:58.368Z,10.08
2022-10-20T02:40:26.445Z,10.08
2022-10-20T02:42:54.104Z,10.07
2022-10-20T02:45:21.507Z,10.07
2022-10-20T02:47:48.814Z,10.07
2022-10-20T02:50:17.244Z,10.05
2022-10-20T02:52:46.164Z,9.98
2022-10-20T02:55:13.770Z,9.99
2022-10-20T02:57:41.151Z,9.99
2022-10-20T03:00:09.325Z,10.00
2022-10-20T03:02:36.619Z,10.00
2022-10-20T03:05:04.273Z,9.99
2022-10-20T03:07:31.835Z,9.99
2022-10-20T03:09:59.243Z,9.99
2022-10-20T03:12:28.909Z,9.99
2022-10-20T03:14:58.832Z,9.96
2022-10-20T03:17:28.736Z,9.98
2022-10-20T03:19:56.097Z,9.96
2022-10-20T03:22:23.656Z,10.00
2022-10-20T03:24:51.518Z,9.97
2022-10-20T03:27:18.946Z,9.97
2022-10-20T03:29:46.501Z,9.96
2022-10-20T03:32:20.140Z,9.93
2022-10-20T03:34:47.490Z,9.92
2022-10-20T03:37:14.845Z,9.94
2022-10-20T03:39:42.682Z,9.94
2022-10-20T03:42:10.033Z,9.93
2022-10-20T03:44:38.752Z,9.91
2022-10-20T03:47:06.121Z,9.90
2022-10-20T03:49:37.456Z,9.90
2022-10-20T03:52:05.130Z,9.88
2022-10-20T03:54:35.832Z,9.88
2022-10-20T03:57:07.830Z,9.87
2022-10-20T03:59:35.451Z,9.87
2022-10-20T04:02:03.092Z,9.87
2022-10-20T04:04:30.614Z,9.85
2022-10-20T04:07:16.567Z,9.84
2022-10-20T04:09:43.852Z,9.85
2022-10-20T04:12:11.316Z,9.86
2022-10-20T04:14:39.369Z,9.84
2022-10-20T04:17:06.753Z,9.85
2022-10-20T04:19:34.496Z,9.85
2022-10-20T04:22:01.763Z,9.88
2022-10-20T04:24:29.983Z,9.87
2022-10-20T04:26:57.551Z,9.89
2022-10-20T04:29:25.164Z,9.90
2022-10-20T04:31:52.670Z,9.91
2022-10-20T04:34:20.051Z,9.93
2022-10-20T04:36:50.440Z,9.95
2022-10-20T04:39:17.960Z,9.97
2022-10-20T04:41:45.333Z,9.97
2022-10-20T04:44:12.645Z,9.97
2022-10-20T04:46:40.219Z,10.03
2022-10-20T04:49:08.496Z,10.07
2022-10-20T04:51:37.540Z,10.09
2022-10-20T04:56:37.416Z,10.18
2022-10-20T04:59:08.416Z,10.22
2022-10-20T05:01:39.947Z,10.27
2022-10-20T05:04:07.598Z,10.31
2022-10-20T05:06:36.021Z,10.36
2022-10-20T05:09:06.674Z,10.40
2022-10-20T05:11:37.072Z,10.45
2022-10-20T05:14:04.911Z,10.56
2022-10-20T05:16:32.219Z,10.61
2022-10-20T05:18:59.967Z,10.67
2022-10-20T05:21:29.743Z,10.66
2022-10-20T05:23:59.622Z,10.67
2022-10-20T05:26:28.600Z,10.70
2022-10-20T05:28:55.890Z,10.73
2022-10-20T05:31:23.987Z,10.72
2022-10-20T05:33:54.707Z,10.70
2022-10-20T05:36:24.662Z,10.66
2022-10-20T05:38:53.906Z,10.64
2022-10-20T05:41:24.595Z,10.61
2022-10-20T05:44:00.104Z,10.60
2022-10-20T05:46:34.546Z,10.60
2022-10-20T05:49:03.732Z,10.58
2022-10-20T05:51:34.901Z,10.60
2022-10-20T05:54:03.713Z,10.67
2022-10-20T05:56:31.953Z,10.69
2022-10-20T05:58:59.192Z,10.69
2022-10-20T06:01:47.754Z,10.62
2022-10-20T06:04:23.374Z,10.57
2022-10-20T06:06:54.363Z,10.47
2022-10-20T06:09:24.595Z,10.42
2022-10-20T06:11:54.506Z,10.31
2022-10-20T06:14:23.753Z,10.27
2022-10-20T06:16:52.493Z,10.20
2022-10-20T06:19:20.752Z,10.12
2022-10-20T06:21:50.273Z,9.92
2022-10-20T06:24:18.773Z,9.83
2022-10-20T06:26:49.284Z,9.72
2022-10-20T06:29:19.374Z,9.61
2022-10-20T06:31:48.870Z,9.49
2022-10-20T06:34:21.252Z,9.38
2022-10-20T06:36:49.579Z,9.22
2022-10-20T06:39:19.577Z,9.08
2022-10-20T06:41:50.314Z,9.03
2022-10-20T06:44:24.696Z,8.93
2022-10-20T06:46:53.989Z,8.91
2022-10-20T06:49:24.159Z,8.87
2022-10-20T06:51:51.513Z,8.80
2022-10-20T06:54:21.931Z,8.76
2022-10-20T06:57:03.823Z,8.71
2022-10-20T06:59:31.374Z,8.66
2022-10-20T07:03:02.556Z,8.59
2022-10-20T07:05:35.440Z,8.54
2022-10-20T07:08:03.496Z,8.50
2022-10-20T07:10:34.087Z,8.47
2022-10-20T07:13:02.365Z,8.43
2022-10-20T07:38:48.794Z,7.92
2022-10-20T07:41:16.092Z,7.88
2022-10-20T07:43:43.764Z,7.85
2022-10-20T07:46:14.949Z,7.84
2022-10-20T07:48:42.360Z,7.82
2022-10-20T07:51:30.218Z,7.75
2022-10-20T07:54:03.437Z,7.77
2022-10-20T07:56:40.959Z,7.77
2022-10-20T07:59:09.686Z,7.77
2022-10-20T08:01:38.762Z,7.82
2022-10-20T08:04:09.074Z,7.87
2022-10-20T08:06:41.400Z,7.90
2022-10-20T08:09:09.963Z,7.88
2022-10-20T08:11:39.394Z,7.93
2022-10-20T08:14:08.200Z,7.88
2022-10-20T08:16:43.251Z,7.89
2022-10-20T08:19:16.732Z,7.88
2022-10-20T08:21:44.240Z,7.90
2022-10-20T08:24:11.707Z,7.92
2022-10-20T08:26:39.875Z,7.94
2022-10-20T08:29:09.781Z,7.95
2022-10-20T08:31:39.202Z,8.03
2022-10-20T08:34:06.417Z,8.09
2022-10-20T08:36:34.061Z,8.09
2022-10-20T08:39:05.044Z,8.09
2022-10-20T08:42:02.522Z,8.21
2022-10-20T08:44:28.375Z,8.27
2022-10-20T08:46:56.189Z,8.27
2022-10-20T08:49:26.429Z,8.36
2022-10-20T08:51:55.154Z,8.40
2022-10-20T08:54:22.546Z,8.40
2022-10-20T08:56:50.017Z,8.48
2022-10-20T08:59:30.379Z,8.63
2022-10-20T09:01:58.080Z,8.69
2022-10-20T09:04:40.739Z,8.74
2022-10-20T09:07:23.727Z,8.77
2022-10-20T09:09:51.425Z,8.81
2022-10-20T09:12:20.270Z,8.79
2022-10-20T09:14:47.635Z,8.86
2022-10-20T09:17:17.238Z,8.91
2022-10-20T09:19:52.755Z,8.95
2022-10-20T09:22:22.325Z,9.02
2022-10-20T09:24:59.322Z,9.03
2022-10-20T09:27:34.603Z,8.95
2022-10-20T09:33:28.442Z,8.88
2022-10-20T09:36:11.949Z,8.83
2022-10-20T09:38:47.234Z,8.74
2022-10-20T09:41:21.330Z,8.72
2022-10-20T09:43:58.260Z,8.63
2022-10-20T09:46:35.081Z,8.57
2022-10-20T09:49:21.121Z,8.44
2022-10-20T09:51:48.576Z,8.24
2022-10-20T09:54:21.335Z,8.18
2022-10-20T09:56:52.928Z,8.09
2022-10-20T09:59:32.526Z,8.07
2022-10-20T10:02:02.288Z,8.06
2022-10-20T10:04:43.301Z,8.18
2022-10-20T10:07:22.757Z,8.30
2022-10-20T10:10:08.664Z,8.27
2022-10-20T10:12:36.611Z,8.09
2022-10-20T10:15:28.010Z,8.12
2022-10-20T10:17:56.830Z,8.13
2022-10-20T10:20:38.514Z,8.13
2022-10-20T10:23:25.146Z,8.09
2022-10-20T10:25:53.405Z,8.03
2022-10-20T10:28:29.529Z,8.00
2022-10-20T10:31:20.946Z,7.90
2022-10-20T10:33:51.347Z,7.72
2022-10-20T10:36:24.399Z,7.64
2022-10-20T10:38:54.836Z,7.54
2022-10-20T10:41:55.402Z,7.53
2022-10-20T10:45:46.698Z,7.45
2022-10-20T10:48:42.388Z,7.48
2022-10-20T10:51:28.049Z,7.47
2022-10-20T10:53:59.037Z,7.42
2022-10-20T10:56:34.270Z,7.41
2022-10-20T10:59:06.492Z,7.34
2022-10-20T11:01:53.293Z,7.28
2022-10-20T11:20:10.981Z,7.32
2022-10-20T11:22:57.433Z,7.21
2022-10-20T11:25:38.637Z,7.13
2022-10-20T11:28:32.700Z,7.05
2022-10-20T11:31:00.688Z,6.95
2022-10-20T11:33:44.734Z,6.73
2022-10-20T11:36:19.761Z,6.77
2022-10-20T11:38:55.245Z,6.76
2022-10-20T11:44:25.690Z,6.73
2022-10-20T11:47:06.111Z,6.56
2022-10-20T11:49:34.032Z,6.44
2022-10-20T11:52:23.505Z,6.36
2022-10-20T11:55:14.762Z,6.25
2022-10-20T11:57:42.616Z,6.17
2022-10-20T12:03:08.643Z,6.21
2022-10-20T12:05:47.887Z,6.24
2022-10-20T12:08:37.514Z,6.25
2022-10-20T12:11:23.788Z,6.25
2022-10-20T12:14:03.098Z,6.33
2022-10-20T12:16:54.580Z,6.37
2022-10-20T12:19:34.420Z,6.41
2022-10-20T12:22:06.906Z,6.44
2022-10-20T12:24:38.230Z,6.42
2022-10-20T12:30:39.172Z,6.36
2022-10-20T12:33:38.368Z,6.30
2022-10-20T12:36:18.034Z,6.28
2022-10-20T12:39:27.807Z,6.28
2022-10-20T12:41:59.744Z,6.29
2022-10-20T12:44:29.892Z,6.25
2022-10-20T12:47:06.958Z,6.29
2022-10-20T12:49:40.723Z,6.32
2022-10-20T12:52:36.901Z,6.35
2022-10-20T12:55:26.004Z,6.38
2022-10-20T12:58:24.108Z,6.44
2022-10-20T13:10:00.416Z,6.52
2022-10-20T13:12:40.045Z,6.54
2022-10-20T13:15:13.716Z,6.55
2022-10-20T13:18:01.991Z,6.56
2022-10-20T13:21:06.789Z,6.57
2022-10-20T13:24:06.103Z,6.59
2022-10-20T13:27:09.537Z,6.62
2022-10-20T13:30:00.317Z,6.66
2022-10-20T13:33:02.042Z,6.63
2022-10-20T13:35:43.070Z,6.71
2022-10-20T13:38:17.756Z,6.69
2022-10-20T13:40:50.691Z,6.66
2022-10-20T13:43:58.265Z,6.75
2022-10-20T13:46:33.415Z,6.79
2022-10-20T13:49:17.431Z,6.75
2022-10-20T13:51:52.451Z,6.79
2022-10-20T13:54:36.339Z,6.64
2022-10-20T13:57:08.932Z,6.85
2022-10-20T13:59:55.586Z,6.90
2022-10-20T14:02:33.814Z,6.94
2022-10-20T14:05:11.892Z,6.99
2022-10-20T14:07:42.431Z,7.03
2022-10-20T14:10:33.114Z,7.00
2022-10-20T14:13:01.742Z,7.05
2022-10-20T14:15:33.337Z,7.07
2022-10-20T14:18:07.423Z,7.05
